createdAt,value
2022-12-06T00:01:17.996Z,0.64
2022-12-06T00:03:46.936Z,0.55
2022-12-06T00:06:19.014Z,0.50
2022-12-06T00:08:47.149Z,0.58
2022-12-06T00:11:24.821Z,0.67
2022-12-06T00:13:56.863Z,0.67
2022-12-06T00:16:24.212Z,0.64
2022-12-06T00:18:50.981Z,0.65
2022-12-06T00:21:22.934Z,0.49
2022-12-06T00:23:52.007Z,0.31
2022-12-06T00:26:18.983Z,0.25
2022-12-06T00:28:47.494Z,0.18
2022-12-06T00:31:16.653Z,0.13
2022-12-06T00:33:43.405Z,0.15
2022-12-06T00:36:15.962Z,0.16
2022-12-06T00:38:42.623Z,0.14
2022-12-06T00:41:14.757Z,0.07
2022-12-06T00:43:41.699Z,-0.07
2022-12-06T00:46:12.024Z,0.02
2022-12-06T00:48:38.628Z,0.06
2022-12-06T00:51:05.320Z,0.02
2022-12-06T00:53:34.258Z,-0.04
2022-12-06T00:56:00.830Z,-0.05
2022-12-06T00:58:27.396Z,-0.10
2022-12-06T01:00:54.188Z,-0.11
2022-12-06T01:03:21.591Z,-0.11
2022-12-06T01:05:50.998Z,-0.05
2022-12-06T01:08:19.017Z,0.00
2022-12-06T01:10:55.019Z,-0.01
2022-12-06T01:13:21.866Z,0.05
2022-12-06T01:15:48.396Z,0.05
2022-12-06T01:18:14.940Z,-0.05
2022-12-06T01:20:41.490Z,-0.10
2022-12-06T01:23:08.149Z,-0.06
2022-12-06T01:25:37.279Z,-0.08
2022-12-06T01:28:06.481Z,-0.20
2022-12-06T01:30:33.001Z,-0.14
2022-12-06T01:32:59.529Z,-0.19
2022-12-06T01:35:26.026Z,-0.25
2022-12-06T01:37:52.522Z,-0.16
2022-12-06T01:40:19.100Z,-0.18
2022-12-06T01:42:45.601Z,-0.04
2022-12-06T01:45:12.161Z,-0.24
2022-12-06T01:47:42.634Z,-0.24
2022-12-06T01:50:19.372Z,-0.23
2022-12-06T01:52:56.366Z,-0.24
2022-12-06T01:55:31.224Z,-0.26
2022-12-06T01:58:02.502Z,-0.27
2022-12-06T02:00:29.023Z,-0.30
2022-12-06T02:02:59.492Z,-0.36
2022-12-06T02:05:26.333Z,-0.36
2022-12-06T02:07:53.754Z,-0.20
2022-12-06T02:10:20.711Z,-0.29
2022-12-06T02:12:50.114Z,-0.43
2022-12-06T02:15:16.708Z,-0.52
2022-12-06T02:17:54.675Z,-0.51
2022-12-06T02:20:33.099Z,-0.52
2022-12-06T02:23:34.665Z,-0.59
2022-12-06T02:26:25.273Z,-0.64
2022-12-06T02:29:21.048Z,-0.66
2022-12-06T02:31:56.659Z,-0.63
2022-12-06T02:34:42.978Z,-0.64
2022-12-06T02:37:14.891Z,-0.63
2022-12-06T02:39:50.099Z,-0.61
2022-12-06T02:42:27.182Z,-0.63
2022-12-06T02:44:56.092Z,-0.69
2022-12-06T02:47:27.402Z,-0.62
2022-12-06T02:49:55.996Z,-0.65
2022-12-06T02:52:26.187Z,-0.65
2022-12-06T02:54:57.072Z,-0.69
2022-12-06T02:57:43.341Z,-0.67
2022-12-06T03:00:25.515Z,-0.62
2022-12-06T03:03:00.131Z,-0.58
2022-12-06T03:05:37.608Z,-0.59
2022-12-06T03:08:11.607Z,-0.53
2022-12-06T03:10:44.979Z,-0.50
2022-12-06T03:13:51.270Z,-0.51
2022-12-06T03:16:35.082Z,-0.58
2022-12-06T03:19:16.473Z,-0.55
2022-12-06T03:21:48.075Z,-0.48
2022-12-06T03:24:16.578Z,-0.49
2022-12-06T03:26:48.527Z,-0.63
2022-12-06T03:29:19.541Z,-0.89
2022-12-06T03:31:48.085Z,-0.87
2022-12-06T03:34:19.395Z,-0.99
2022-12-06T03:36:49.041Z,-1.02
2022-12-06T03:39:24.305Z,-1.15
2022-12-06T03:41:55.741Z,-1.26
2022-12-06T03:44:23.408Z,-1.31
2022-12-06T03:46:56.842Z,-1.30
2022-12-06T03:49:33.445Z,-1.46
2022-12-06T03:52:00.031Z,-1.36
2022-12-06T03:54:26.532Z,-1.38
2022-12-06T03:56:53.037Z,-1.47
2022-12-06T03:59:19.550Z,-1.35
2022-12-06T04:01:46.112Z,-1.37
2022-12-06T04:04:14.077Z,-1.26
2022-12-06T04:06:40.587Z,-1.12
2022-12-06T04:09:25.771Z,-1.09
2022-12-06T04:11:52.295Z,-0.98
2022-12-06T04:14:18.765Z,-1.01
2022-12-06T04:17:04.601Z,-0.99
2022-12-06T04:19:31.160Z,-0.93
2022-12-06T04:22:16.284Z,-0.98
2022-12-06T04:24:43.062Z,-0.98
2022-12-06T04:27:28.568Z,-1.00
2022-12-06T04:30:14.993Z,-1.13
2022-12-06T04:32:59.799Z,-1.16
2022-12-06T04:35:48.033Z,-1.03
2022-12-06T04:38:32.855Z,-1.23
2022-12-06T04:40:59.443Z,-1.19
2022-12-06T04:43:44.440Z,-1.25
2022-12-06T04:46:13.750Z,-1.33
2022-12-06T04:48:41.151Z,-1.41
2022-12-06T04:51:12.900Z,-1.51
2022-12-06T04:53:39.511Z,-1.46
2022-12-06T04:56:06.238Z,-1.44
2022-12-06T04:58:32.728Z,-1.27
2022-12-06T05:00:59.318Z,-1.07
2022-12-06T05:03:25.979Z,-1.14
2022-12-06T05:05:52.572Z,-1.28
2022-12-06T05:08:19.180Z,-1.26
2022-12-06T05:10:51.796Z,-1.15
2022-12-06T05:13:21.457Z,-1.35
2022-12-06T05:15:53.424Z,-1.33
2022-12-06T05:18:20.008Z,-1.39
2022-12-06T05:20:50.560Z,-1.36
2022-12-06T05:23:20.411Z,-1.45
2022-12-06T05:25:48.972Z,-1.42
2022-12-06T05:28:15.455Z,-1.38
2022-12-06T05:30:41.976Z,-1.40
2022-12-06T05:33:08.474Z,-1.25
2022-12-06T05:35:34.945Z,-1.19
2022-12-06T05:38:01.440Z,-1.13
2022-12-06T05:40:28.000Z,-1.15
2022-12-06T05:42:54.499Z,-1.17
2022-12-06T05:45:21.107Z,-1.09
2022-12-06T05:47:50.058Z,-1.04
2022-12-06T05:50:16.702Z,-1.03
2022-12-06T05:52:46.152Z,-1.01
2022-12-06T05:55:12.668Z,-0.98
2022-12-06T05:57:47.117Z,-0.93
2022-12-06T06:00:15.520Z,-1.00
2022-12-06T06:02:42.453Z,-0.95
2022-12-06T06:05:09.210Z,-0.99
2022-12-06T06:07:35.988Z,-0.98
2022-12-06T06:10:02.847Z,-1.05
2022-12-06T06:12:29.527Z,-1.10
2022-12-06T06:14:56.076Z,-0.98
2022-12-06T06:17:24.234Z,-0.98
2022-12-06T06:19:53.833Z,-0.97
2022-12-06T06:22:24.571Z,-0.98
2022-12-06T06:24:51.646Z,-1.05
2022-12-06T06:27:20.664Z,-1.02
2022-12-06T06:29:47.147Z,-1.02
2022-12-06T06:32:13.810Z,-0.99
2022-12-06T06:34:40.407Z,-1.03
2022-12-06T06:37:07.014Z,-0.84
2022-12-06T06:39:34.161Z,-0.94
2022-12-06T06:42:00.689Z,-0.92
2022-12-06T06:44:27.198Z,-0.94
2022-12-06T06:46:53.701Z,-0.93
2022-12-06T06:49:23.325Z,-0.94
2022-12-06T06:51:52.671Z,-1.01
2022-12-06T06:54:20.374Z,-0.93
2022-12-06T06:56:46.911Z,-1.03
2022-12-06T06:59:13.424Z,-0.95
2022-12-06T07:01:40.028Z,-1.12
2022-12-06T07:04:06.684Z,-0.98
2022-12-06T07:06:33.232Z,-1.08
2022-12-06T07:08:59.703Z,-1.08
2022-12-06T07:11:26.206Z,-1.02
2022-12-06T07:13:53.060Z,-1.15
2022-12-06T07:16:22.760Z,-1.14
2022-12-06T07:18:50.794Z,-1.21
2022-12-06T07:21:20.508Z,-1.23
2022-12-06T07:23:47.368Z,-1.19
2022-12-06T07:26:21.750Z,-1.20
2022-12-06T07:28:53.586Z,-1.24
2022-12-06T07:31:27.423Z,-1.19
2022-12-06T07:33:56.784Z,-1.15
2022-12-06T07:36:24.179Z,-1.25
2022-12-06T07:38:55.628Z,-1.17
2022-12-06T07:41:43.279Z,-1.14
2022-12-06T07:44:32.120Z,-0.98
2022-12-06T07:46:59.326Z,-0.99
2022-12-06T07:49:26.261Z,-0.90
2022-12-06T07:51:54.108Z,-0.87
2022-12-06T07:54:25.731Z,-0.93
2022-12-06T07:56:56.357Z,-0.97
2022-12-06T07:59:23.670Z,-0.99
2022-12-06T08:01:54.800Z,-0.89
2022-12-06T08:04:24.935Z,-0.95
2022-12-06T08:06:54.336Z,-0.92
2022-12-06T08:09:25.152Z,-0.92
2022-12-06T08:11:54.754Z,-0.94
2022-12-06T08:14:24.746Z,-0.72
2022-12-06T08:16:54.805Z,-0.72
2022-12-06T08:19:24.373Z,-0.78
2022-12-06T08:21:53.798Z,-0.82
2022-12-06T08:24:22.520Z,-0.78
2022-12-06T08:26:54.246Z,-0.69
2022-12-06T08:29:25.094Z,-0.59
2022-12-06T08:31:54.714Z,-0.66
2022-12-06T08:34:24.320Z,-0.62
2022-12-06T08:36:52.808Z,-0.52
2022-12-06T08:39:19.329Z,-0.57
2022-12-06T08:42:03.528Z,-0.68
2022-12-06T08:44:34.288Z,-0.85
2022-12-06T08:47:01.675Z,-0.91
2022-12-06T08:49:29.814Z,-0.73
2022-12-06T08:51:56.492Z,-0.71
2022-12-06T08:54:24.867Z,-0.61
2022-12-06T08:56:53.053Z,-0.56
2022-12-06T08:59:21.305Z,-0.58
2022-12-06T09:01:48.258Z,-0.55
2022-12-06T09:04:15.005Z,-0.45
2022-12-06T09:06:43.779Z,-0.50
2022-12-06T09:09:11.611Z,-0.41
2022-12-06T09:11:39.655Z,-0.17
2022-12-06T09:14:07.409Z,-0.23
2022-12-06T09:16:34.147Z,-0.32
2022-12-06T09:19:00.758Z,-0.35
2022-12-06T09:21:31.852Z,-0.24
2022-12-06T09:23:59.192Z,-0.29
2022-12-06T09:26:29.471Z,-0.18
2022-12-06T09:28:56.869Z,-0.12
2022-12-06T09:31:24.363Z,-0.06
2022-12-06T09:33:52.805Z,0.05
2022-12-06T09:36:26.365Z,0.15
2022-12-06T09:38:55.943Z,0.24
2022-12-06T09:41:43.801Z,0.37
2022-12-06T09:44:22.997Z,0.46
2022-12-06T09:46:52.505Z,0.52
2022-12-06T09:49:29.373Z,0.66
2022-12-06T09:52:08.233Z,0.66
2022-12-06T09:54:38.882Z,0.69
2022-12-06T09:57:17.146Z,0.63
2022-12-06T10:00:02.302Z,0.68
2022-12-06T10:02:35.530Z,0.76
2022-12-06T10:05:39.027Z,0.86
2022-12-06T10:08:19.824Z,0.79
2022-12-06T10:11:22.741Z,0.92
2022-12-06T10:14:10.895Z,0.90
2022-12-06T10:16:52.325Z,0.96
2022-12-06T10:19:37.122Z,1.08
2022-12-06T10:22:22.365Z,1.07
2022-12-06T10:25:06.801Z,1.22
2022-12-06T10:27:53.537Z,1.23
2022-12-06T10:30:23.590Z,1.30
2022-12-06T10:32:53.180Z,1.43
2022-12-06T10:35:40.372Z,1.56
2022-12-06T10:38:07.213Z,1.68
2022-12-06T10:40:51.895Z,1.82
2022-12-06T10:43:29.313Z,1.90
2022-12-06T10:46:33.393Z,2.08
2022-12-06T10:49:22.275Z,1.93
2022-12-06T10:51:57.912Z,1.89
2022-12-06T10:54:43.325Z,1.77
2022-12-06T10:57:25.455Z,1.81
2022-12-06T11:00:04.045Z,1.80
2022-12-06T11:02:39.592Z,1.82
2022-12-06T11:05:17.335Z,1.85
2022-12-06T11:07:47.245Z,1.89
2022-12-06T11:10:27.705Z,1.79
2022-12-06T11:13:02.032Z,1.89
2022-12-06T11:15:35.222Z,1.77
2022-12-06T11:18:16.804Z,1.73
2022-12-06T11:21:05.699Z,1.73
2022-12-06T11:23:48.346Z,1.77
2022-12-06T11:26:30.906Z,1.70
2022-12-06T11:29:06.515Z,1.63
2022-12-06T11:31:35.220Z,1.69
2022-12-06T11:34:03.292Z,1.71
2022-12-06T11:36:31.189Z,1.85
2022-12-06T11:38:59.403Z,2.08
2022-12-06T11:41:34.236Z,1.98
2022-12-06T11:44:00.952Z,2.03
2022-12-06T11:46:28.748Z,2.09
2022-12-06T11:49:03.661Z,2.12
2022-12-06T11:51:30.266Z,2.14
2022-12-06T11:54:05.640Z,2.15
2022-12-06T11:56:37.198Z,2.26
2022-12-06T11:59:25.196Z,2.07
2022-12-06T12:02:03.737Z,1.99
2022-12-06T12:04:32.267Z,2.08
2022-12-06T12:07:22.633Z,1.98
2022-12-06T12:09:53.542Z,2.05
2022-12-06T12:12:59.640Z,1.95
2022-12-06T12:15:27.736Z,1.86
2022-12-06T12:17:56.449Z,1.81
2022-12-06T12:20:33.917Z,1.75
2022-12-06T12:23:06.209Z,1.73
2022-12-06T12:25:35.449Z,1.71
2022-12-06T12:28:22.771Z,1.62
2022-12-06T12:30:58.278Z,1.50
2022-12-06T12:33:30.128Z,1.66
2022-12-06T12:36:02.760Z,1.68
2022-12-06T12:38:43.015Z,1.72
2022-12-06T12:41:31.264Z,1.50
2022-12-06T12:44:13.837Z,1.49
2022-12-06T12:46:46.048Z,1.64
2022-12-06T12:49:23.802Z,1.72
2022-12-06T12:51:57.969Z,1.60
2022-12-06T12:54:35.028Z,1.43
2022-12-06T12:57:07.146Z,1.51
2022-12-06T12:59:39.024Z,1.58
2022-12-06T13:02:23.399Z,1.49
2022-12-06T13:05:10.967Z,1.54
2022-12-06T13:07:44.119Z,1.42
2022-12-06T13:10:36.526Z,1.39
2022-12-06T13:13:14.688Z,1.28
2022-12-06T13:15:47.369Z,1.31
2022-12-06T13:18:25.036Z,1.31
2022-12-06T13:20:54.133Z,1.15
2022-12-06T13:23:25.105Z,1.02
2022-12-06T13:26:19.954Z,0.99
2022-12-06T13:28:54.662Z,0.99
2022-12-06T13:31:25.072Z,0.86
2022-12-06T13:33:56.934Z,0.79
2022-12-06T13:36:25.391Z,0.80
2022-12-06T13:38:51.894Z,0.84
2022-12-06T13:41:55.939Z,0.92
2022-12-06T13:44:51.148Z,0.85
2022-12-06T13:47:26.747Z,0.73
2022-12-06T13:50:00.418Z,0.72
2022-12-06T13:52:42.100Z,0.74
2022-12-06T13:55:25.254Z,0.74
2022-12-06T13:58:00.694Z,0.69
2022-12-06T14:00:29.995Z,0.69
2022-12-06T14:03:18.657Z,0.72
2022-12-06T14:06:12.175Z,0.77
2022-12-06T14:08:59.499Z,0.64
2022-12-06T14:11:33.989Z,0.48
2022-12-06T14:14:08.967Z,0.37
2022-12-06T14:16:38.685Z,0.44
2022-12-06T14:19:26.073Z,0.53
2022-12-06T14:21:56.957Z,0.61
2022-12-06T14:24:31.289Z,0.58
2022-12-06T14:27:04.850Z,0.65
2022-12-06T14:29:32.052Z,0.57
2022-12-06T14:31:59.058Z,0.66
2022-12-06T14:34:30.767Z,0.61
2022-12-06T14:37:02.624Z,0.75
2022-12-06T14:39:31.641Z,0.80
2022-12-06T14:42:23.156Z,0.81
2022-12-06T14:44:56.160Z,0.96
2022-12-06T14:47:30.365Z,0.93
2022-12-06T14:50:19.131Z,0.99
2022-12-06T14:53:17.104Z,0.87
2022-12-06T14:56:04.368Z,0.93
2022-12-06T14:58:34.657Z,0.97
2022-12-06T15:01:22.761Z,0.92
2022-12-06T15:04:09.111Z,1.05
2022-12-06T15:06:37.964Z,0.97
2022-12-06T15:09:12.391Z,0.87
2022-12-06T15:11:59.643Z,0.80
2022-12-06T15:14:44.886Z,0.80
2022-12-06T15:17:13.679Z,0.91
2022-12-06T15:19:51.272Z,0.96
2022-12-06T15:22:25.510Z,0.98
2022-12-06T15:24:56.406Z,0.77
2022-12-06T15:27:27.169Z,0.62
2022-12-06T15:29:54.192Z,0.92
2022-12-06T15:32:23.761Z,0.69
2022-12-06T15:34:50.316Z,0.68
2022-12-06T15:40:04.618Z,0.39
2022-12-06T15:42:31.280Z,0.34
2022-12-06T15:44:57.813Z,0.27
2022-12-06T15:47:25.147Z,0.40
2022-12-06T15:49:59.909Z,0.36
2022-12-06T15:52:29.512Z,0.38
2022-12-06T15:54:59.786Z,0.50
2022-12-06T15:57:27.462Z,0.47
2022-12-06T15:59:53.995Z,0.59
2022-12-06T16:02:20.664Z,0.54
2022-12-06T16:04:50.470Z,0.44
2022-12-06T16:07:19.166Z,0.55
2022-12-06T16:09:46.290Z,0.66
2022-12-06T16:12:12.892Z,0.63
2022-12-06T16:14:39.440Z,0.63
2022-12-06T16:17:05.984Z,0.68
2022-12-06T16:19:50.847Z,0.68
2022-12-06T16:22:17.425Z,0.71
2022-12-06T16:24:44.847Z,0.77
2022-12-06T16:27:12.745Z,0.73
2022-12-06T16:29:39.450Z,0.79
2022-12-06T16:32:06.058Z,0.78
2022-12-06T16:34:32.572Z,0.75
2022-12-06T16:37:04.761Z,0.69
2022-12-06T16:39:33.636Z,0.67
2022-12-06T16:42:01.312Z,0.59
2022-12-06T16:44:30.821Z,0.61
2022-12-06T16:47:00.525Z,0.59
2022-12-06T16:49:47.876Z,0.81
2022-12-06T16:52:15.208Z,0.84
2022-12-06T16:54:42.318Z,0.91
2022-12-06T16:57:11.583Z,0.81
2022-12-06T16:59:38.323Z,0.78
2022-12-06T17:02:21.850Z,0.86
2022-12-06T17:04:48.504Z,1.00
2022-12-06T17:07:15.396Z,0.91
2022-12-06T17:09:44.903Z,0.84
2022-12-06T17:12:13.474Z,0.88
2022-12-06T17:14:40.080Z,0.88
2022-12-06T17:17:06.935Z,0.98
2022-12-06T17:19:33.683Z,1.02
2022-12-06T17:22:02.410Z,0.97
2022-12-06T17:24:29.019Z,1.00
2022-12-06T17:26:59.496Z,1.00
2022-12-06T17:29:28.983Z,1.14
2022-12-06T17:31:58.451Z,1.18
2022-12-06T17:34:26.962Z,1.25
2022-12-06T17:36:53.918Z,1.25
2022-12-06T17:39:21.135Z,1.32
2022-12-06T17:42:06.139Z,1.35
2022-12-06T17:44:34.054Z,1.38
2022-12-06T17:47:00.728Z,1.36
2022-12-06T17:49:30.070Z,1.23
2022-12-06T17:51:59.385Z,1.33
2022-12-06T17:54:29.570Z,1.39
2022-12-06T17:56:59.614Z,1.36
2022-12-06T17:59:31.935Z,1.32
2022-12-06T18:02:16.870Z,1.33
2022-12-06T18:04:44.691Z,1.34
2022-12-06T18:07:13.046Z,1.45
2022-12-06T18:09:40.904Z,1.49
2022-12-06T18:12:12.360Z,1.52
2022-12-06T18:14:38.933Z,1.50
2022-12-06T18:17:05.558Z,1.58
2022-12-06T18:19:32.523Z,1.56
2022-12-06T18:21:59.107Z,1.59
2022-12-06T18:24:35.426Z,1.51
2022-12-06T18:27:02.890Z,1.62
2022-12-06T18:29:29.459Z,1.57
2022-12-06T18:31:59.221Z,1.44
2022-12-06T18:34:28.798Z,1.40
2022-12-06T18:36:57.618Z,1.38
2022-12-06T18:39:27.614Z,1.68
2022-12-06T18:41:57.113Z,1.74
2022-12-06T18:44:24.014Z,1.93
2022-12-06T18:46:51.212Z,1.94
2022-12-06T18:49:17.953Z,1.94
2022-12-06T18:51:44.491Z,1.90
2022-12-06T18:54:13.782Z,1.87
2022-12-06T18:56:40.953Z,1.87
2022-12-06T18:59:08.674Z,1.82
2022-12-06T19:01:37.727Z,1.77
2022-12-06T19:04:06.040Z,1.64
2022-12-06T19:06:34.927Z,1.67
2022-12-06T19:09:05.319Z,1.61
2022-12-06T19:11:32.461Z,1.57
2022-12-06T19:14:00.517Z,1.54
2022-12-06T19:16:30.511Z,1.60
2022-12-06T19:19:01.494Z,1.64
2022-12-06T19:21:30.259Z,1.33
2022-12-06T19:23:57.817Z,1.39
2022-12-06T19:26:28.904Z,1.52
2022-12-06T19:28:58.625Z,1.52
2022-12-06T19:31:28.156Z,1.38
2022-12-06T19:33:57.120Z,1.30
2022-12-06T19:36:29.736Z,1.14
2022-12-06T19:39:01.862Z,1.01
2022-12-06T19:41:29.104Z,1.26
2022-12-06T19:44:17.964Z,1.33
2022-12-06T19:46:45.903Z,1.35
2022-12-06T19:49:13.823Z,1.24
2022-12-06T19:51:45.785Z,1.26
2022-12-06T19:54:17.817Z,1.31
2022-12-06T19:56:44.768Z,1.29
2022-12-06T19:59:11.776Z,1.50
2022-12-06T20:01:40.671Z,1.26
2022-12-06T20:04:20.991Z,1.36
2022-12-06T20:06:47.807Z,1.33
2022-12-06T20:09:14.556Z,1.23
2022-12-06T20:12:01.702Z,1.12
2022-12-06T20:14:39.466Z,0.96
2022-12-06T20:17:10.293Z,0.96
2022-12-06T20:19:37.431Z,0.98
2022-12-06T20:22:04.074Z,0.81
2022-12-06T20:24:30.651Z,0.68
2022-12-06T20:27:00.725Z,0.78
2022-12-06T20:29:29.978Z,0.67
2022-12-06T20:32:00.756Z,0.78
2022-12-06T20:34:34.187Z,0.74
2022-12-06T20:37:03.661Z,0.76
2022-12-06T20:39:32.747Z,0.92
2022-12-06T20:41:59.417Z,0.83
2022-12-06T20:44:29.481Z,0.79
2022-12-06T20:47:00.264Z,0.72
2022-12-06T20:49:30.142Z,0.91
2022-12-06T20:52:02.123Z,1.00
2022-12-06T20:54:28.974Z,0.93
2022-12-06T20:56:57.633Z,0.88
2022-12-06T20:59:24.411Z,0.92
2022-12-06T21:01:51.062Z,0.90
2022-12-06T21:04:17.735Z,0.83
2022-12-06T21:06:44.574Z,0.80
2022-12-06T21:09:11.411Z,0.62
2022-12-06T21:11:38.545Z,0.80
2022-12-06T21:14:05.869Z,0.79
2022-12-06T21:16:35.569Z,0.83
2022-12-06T21:19:04.773Z,0.81
2022-12-06T21:21:34.512Z,0.75
2022-12-06T21:24:02.762Z,0.68
2022-12-06T21:26:30.754Z,0.70
2022-12-06T21:28:57.906Z,0.90
2022-12-06T21:31:32.911Z,0.88
2022-12-06T21:33:59.890Z,0.89
2022-12-06T21:36:33.551Z,0.82
2022-12-06T21:39:00.243Z,0.86
2022-12-06T21:41:29.986Z,0.85
2022-12-06T21:43:57.785Z,0.70
2022-12-06T21:46:28.510Z,0.91
2022-12-06T21:48:58.484Z,0.80
2022-12-06T21:51:30.640Z,0.96
2022-12-06T21:54:00.577Z,0.89
2022-12-06T21:56:30.435Z,0.94
2022-12-06T21:59:01.261Z,0.83
2022-12-06T22:01:30.659Z,0.93
2022-12-06T22:04:02.347Z,1.08
2022-12-06T22:06:29.016Z,0.99
2022-12-06T22:09:01.367Z,0.99
2022-12-06T22:11:29.846Z,1.07
2022-12-06T22:14:00.943Z,1.12
2022-12-06T22:16:31.244Z,1.01
2022-12-06T22:19:01.038Z,0.95
2022-12-06T22:21:32.070Z,0.99
2022-12-06T22:24:01.751Z,0.93
2022-12-06T22:26:31.782Z,0.79
2022-12-06T22:29:01.324Z,0.83
2022-12-06T22:31:33.677Z,0.92
2022-12-06T22:34:01.858Z,0.94
2022-12-06T22:36:30.837Z,0.82
2022-12-06T22:39:02.886Z,0.90
2022-12-06T22:41:32.997Z,0.88
2022-12-06T22:44:05.449Z,0.94
2022-12-06T22:46:34.111Z,0.92
2022-12-06T22:49:04.993Z,1.01
2022-12-06T22:51:34.525Z,1.02
2022-12-06T22:54:07.406Z,1.12
2022-12-06T22:56:34.609Z,1.12
2022-12-06T22:59:02.689Z,1.10
2022-12-06T23:01:34.760Z,0.96
2022-12-06T23:04:06.818Z,1.10
2022-12-06T23:06:36.189Z,0.99
2022-12-06T23:09:04.856Z,1.14
2022-12-06T23:11:36.520Z,1.16
2022-12-06T23:14:04.403Z,1.03
2022-12-06T23:16:34.931Z,1.15
2022-12-06T23:19:04.951Z,1.14
2022-12-06T23:21:34.372Z,1.22
2022-12-06T23:24:07.767Z,1.05
2022-12-06T23:26:37.501Z,1.22
2022-12-06T23:29:04.849Z,1.12
2022-12-06T23:31:37.197Z,1.02
2022-12-06T23:34:17.762Z,1.14
2022-12-06T23:36:44.620Z,1.23
2022-12-06T23:39:11.702Z,1.12
2022-12-06T23:41:38.687Z,1.19
2022-12-06T23:44:06.599Z,1.31
2022-12-06T23:46:38.332Z,1.27
2022-12-06T23:49:06.104Z,1.39
2022-12-06T23:51:37.651Z,1.48
2022-12-06T23:54:09.157Z,1.37
2022-12-06T23:56:37.943Z,1.23
2022-12-06T23:59:06.887Z,1.19
